Time;durP1;ratioP1;P1;durP2;ratioP2;P2;SDS_P1;SDS_P2;PMS_P1;PMS_P2;Temp;Humidity;BMP_temperature;BMP_pressure;BME280_temperature;BME280_humidity;BME280_pressure;Samples;Min_cycle;Max_cycle;Signal;HPM_P1;HPM_P2
2021/07/26 00:01:01;;;;;;;2.58;2.38;;;;;;;34.34;31.49;97840.75;5067774;28;20519;-82
2021/07/26 00:03:27;;;;;;;2.60;2.20;;;;;;;34.19;31.88;97850.78;5069966;28;20032;-82
2021/07/26 00:05:54;;;;;;;2.85;2.63;;;;;;;34.25;31.74;97846.66;5069680;28;20503;-83
2021/07/26 00:08:21;;;;;;;3.42;1.80;;;;;;;34.66;31.32;97842.22;5074368;28;20036;-84
2021/07/26 00:10:47;;;;;;;3.10;2.88;;;;;;;34.78;30.89;97850.81;5073797;28;20040;-84
2021/07/26 00:13:13;;;;;;;2.72;2.53;;;;;;;34.74;31.22;97846.16;5074836;28;20439;-83
2021/07/26 00:15:41;;;;;;;4.32;1.67;;;;;;;34.92;30.75;97832.69;5073217;28;20060;-83
2021/07/26 00:18:07;;;;;;;2.15;1.80;;;;;;;35.06;30.89;97823.94;5071716;28;20052;-83
2021/07/26 00:20:33;;;;;;;1.60;1.50;;;;;;;34.63;31.64;97829.00;5073770;28;20032;-83
2021/07/26 00:22:59;;;;;;;4.07;3.35;;;;;;;33.93;32.95;97817.44;5074716;28;20029;-83
2021/07/26 00:25:25;;;;;;;2.85;2.65;;;;;;;33.69;33.08;97810.50;5072712;28;20040;-83
2021/07/26 00:27:51;;;;;;;5.13;2.92;;;;;;;33.21;33.98;97824.56;5069884;28;20139;-82
2021/07/26 00:30:19;;;;;;;5.10;2.80;;;;;;;32.75;35.16;97842.41;5071309;28;20519;-82
2021/07/26 00:32:45;;;;;;;5.03;2.33;;;;;;;33.53;33.78;97851.03;5069494;28;20058;-82
2021/07/26 00:35:11;;;;;;;3.13;2.58;;;;;;;33.85;33.59;97847.66;5073046;28;20036;-82
2021/07/26 00:37:37;;;;;;;4.88;3.60;;;;;;;33.49;34.24;97861.84;5070864;28;20020;-82
2021/07/26 00:40:08;;;;;;;3.85;2.10;;;;;;;33.86;33.48;97869.19;5073637;28;20480;-82
2021/07/26 00:42:36;;;;;;;3.45;3.15;;;;;;;33.58;34.23;97844.59;5073947;28;20021;-82
2021/07/26 00:45:03;;;;;;;3.28;2.70;;;;;;;33.64;33.94;97849.03;5069864;28;20088;-82
2021/07/26 00:47:29;;;;;;;2.33;2.13;;;;;;;33.80;33.88;97867.53;5073939;28;20074;-82
2021/07/26 00:49:55;;;;;;;3.92;2.85;;;;;;;33.89;33.57;97885.22;5067055;28;20032;-82
2021/07/26 00:52:22;;;;;;;4.28;3.67;;;;;;;33.56;34.09;97901.28;5072705;28;20107;-82
2021/07/26 00:54:49;;;;;;;4.18;3.80;;;;;;;33.04;35.30;97898.38;5073711;28;20127;-82
2021/07/26 00:57:16;;;;;;;2.38;2.17;;;;;;;33.50;34.67;97915.41;5071737;28;20051;-82
2021/07/26 00:59:42;;;;;;;2.42;2.22;;;;;;;33.08;35.53;97921.69;5072680;28;20365;-82
2021/07/26 01:02:08;;;;;;;1.95;1.85;;;;;;;32.98;35.77;97908.09;5066961;28;20388;-82
2021/07/26 01:04:34;;;;;;;2.35;2.15;;;;;;;32.75;35.84;97901.34;5073220;28;20396;-81
2021/07/26 01:07:00;;;;;;;2.38;1.50;;;;;;;33.04;35.91;97887.00;5069517;28;20035;-82
2021/07/26 01:09:26;;;;;;;1.70;1.52;;;;;;;33.27;35.33;97868.88;5068819;28;20032;-82
2021/07/26 01:11:52;;;;;;;2.33;2.13;;;;;;;33.35;34.83;97855.75;5074395;28;20024;-82
2021/07/26 01:14:19;;;;;;;2.30;2.10;;;;;;;33.31;34.93;97835.28;5067802;28;20485;-82
2021/07/26 01:16:46;;;;;;;2.50;2.30;;;;;;;32.33;36.38;97824.25;5071063;28;20558;-82
2021/07/26 01:19:12;;;;;;;2.08;1.90;;;;;;;32.20;36.89;97806.78;5073660;28;20037;-81
2021/07/26 01:21:39;;;;;;;2.40;2.20;;;;;;;31.87;37.88;97809.91;5066901;28;20052;-82
2021/07/26 01:24:05;;;;;;;3.05;2.28;;;;;;;31.27;38.85;97790.63;5072932;28;20033;-81
2021/07/26 01:26:32;;;;;;;2.45;1.77;;;;;;;30.69;40.41;97765.84;5071610;28;20082;-81
2021/07/26 01:29:00;;;;;;;2.05;1.63;;;;;;;30.91;39.82;97742.78;5070486;28;20037;-81
2021/07/26 01:31:27;;;;;;;2.08;1.88;;;;;;;31.35;39.07;97730.13;5071277;28;20059;-81
2021/07/26 01:33:54;;;;;;;2.00;1.25;;;;;;;31.68;38.41;97727.06;5067375;28;20029;-81
2021/07/26 01:36:22;;;;;;;0.98;0.98;;;;;;;31.95;38.05;97723.03;5072408;28;20119;-81
2021/07/26 01:38:51;;;;;;;1.65;1.55;;;;;;;31.56;38.27;97705.44;5069417;28;20492;-81
2021/07/26 01:41:23;;;;;;;2.78;2.17;;;;;;;31.12;39.21;97684.88;5069503;28;20098;-80
2021/07/26 01:44:03;;;;;;;1.83;1.65;;;;;;;31.38;39.15;97682.97;5069196;28;20112;-82
2021/07/26 01:46:48;;;;;;;2.45;1.75;;;;;;;31.58;37.99;97666.00;5071104;28;20547;-81
2021/07/26 01:49:52;;;;;;;1.65;1.55;;;;;;;30.56;40.82;97647.09;5069878;28;20128;-81
2021/07/26 01:52:18;;;;;;;1.17;1.08;;;;;;;31.74;38.35;97645.56;5072316;28;20044;-81
2021/07/26 01:54:44;;;;;;;1.65;0.88;;;;;;;32.75;36.04;97657.56;5072534;28;20029;-80
2021/07/26 01:57:12;;;;;;;1.45;1.08;;;;;;;33.00;35.66;97684.41;5068881;28;20035;-81
2021/07/26 01:59:39;;;;;;;1.23;1.13;;;;;;;32.74;36.00;97684.44;5070697;28;20111;-81
2021/07/26 02:02:05;;;;;;;0.73;0.65;;;;;;;32.88;35.72;97688.47;5068973;28;20029;-81
2021/07/26 02:04:31;;;;;;;1.20;1.10;;;;;;;32.82;35.87;97681.94;5072838;28;20039;-81
2021/07/26 02:06:57;;;;;;;1.17;0.70;;;;;;;32.71;35.81;97667.63;5070826;28;20036;-81
2021/07/26 02:09:23;;;;;;;1.42;0.90;;;;;;;32.25;36.51;97681.84;5071377;28;20036;-81
2021/07/26 02:11:49;;;;;;;3.40;1.58;;;;;;;32.30;36.51;97681.13;5071311;28;20043;-81
2021/07/26 02:14:15;;;;;;;1.08;0.90;;;;;;;32.33;36.26;97668.75;5071844;28;20025;-81
2021/07/26 02:16:42;;;;;;;0.60;0.60;;;;;;;32.26;36.48;97657.84;5069140;28;20396;-81
2021/07/26 02:19:08;;;;;;;1.00;0.90;;;;;;;32.10;36.91;97658.44;5071217;28;20141;-80
2021/07/26 02:21:35;;;;;;;0.90;0.80;;;;;;;32.00;36.66;97649.28;5077504;28;20035;-80
2021/07/26 02:24:01;;;;;;;0.60;0.50;;;;;;;32.13;36.43;97645.28;5073001;28;20032;-81
2021/07/26 02:26:27;;;;;;;2.50;0.70;;;;;;;31.87;36.98;97648.06;5069946;28;20036;-81
2021/07/26 02:28:54;;;;;;;0.80;0.70;;;;;;;32.17;36.45;97652.31;5069105;28;20564;-81
2021/07/26 02:31:20;;;;;;;0.60;0.60;;;;;;;32.23;36.31;97667.34;5071752;28;20380;-81
2021/07/26 02:33:46;;;;;;;1.48;1.02;;;;;;;31.84;36.71;97668.91;5068091;28;20390;-81
2021/07/26 02:36:12;;;;;;;1.02;0.70;;;;;;;32.51;35.95;97671.28;5070992;28;20500;-81
2021/07/26 02:38:38;;;;;;;0.70;0.55;;;;;;;33.01;35.15;97677.47;5065161;28;20037;-81
2021/07/26 02:41:15;;;;;;;1.25;0.63;;;;;;;33.27;33.99;97672.50;5070311;28;20028;-81
2021/07/26 02:43:42;;;;;;;0.73;0.73;;;;;;;33.60;33.34;97674.03;5068879;28;20029;-81
2021/07/26 02:46:09;;;;;;;0.50;0.50;;;;;;;33.91;33.07;97688.19;5070875;28;20056;-81
2021/07/26 02:48:39;;;;;;;0.65;0.60;;;;;;;34.19;32.29;97696.88;5070749;28;20031;-81
2021/07/26 02:51:05;;;;;;;4.83;0.70;;;;;;;34.24;32.32;97696.09;5070892;28;20040;-81
2021/07/26 02:53:32;;;;;;;0.65;0.52;;;;;;;34.38;31.88;97703.66;5070711;28;20064;-81
2021/07/26 02:55:58;;;;;;;1.88;0.70;;;;;;;34.29;32.20;97701.81;5070514;28;20028;-81
2021/07/26 02:58:25;;;;;;;0.60;0.60;;;;;;;34.37;31.94;97708.59;5071276;28;20033;-81
2021/07/26 03:00:51;;;;;;;0.50;0.50;;;;;;;34.53;32.03;97722.13;5070131;28;20035;-81
2021/07/26 03:03:17;;;;;;;1.08;0.68;;;;;;;34.01;32.31;97712.28;5071142;28;20062;-81
2021/07/26 03:05:43;;;;;;;0.60;0.50;;;;;;;34.26;32.12;97704.91;5070586;28;20063;-82
2021/07/26 03:08:09;;;;;;;0.50;0.50;;;;;;;33.25;33.79;97709.22;5070174;28;20035;-81
2021/07/26 03:10:36;;;;;;;1.13;0.60;;;;;;;32.75;34.26;97699.44;5069855;28;20036;-81
2021/07/26 03:13:02;;;;;;;0.70;0.70;;;;;;;32.32;34.72;97701.31;5065639;28;20541;-81
2021/07/26 03:15:28;;;;;;;0.68;0.57;;;;;;;32.78;34.24;97709.03;5066866;28;20048;-82
2021/07/26 03:17:54;;;;;;;1.83;0.50;;;;;;;33.44;33.07;97712.47;5071143;28;20032;-81
2021/07/26 03:20:20;;;;;;;0.63;0.50;;;;;;;33.81;32.62;97704.69;5068493;28;20028;-82
2021/07/26 03:22:59;;;;;;;1.77;0.50;;;;;;;33.31;33.38;97701.50;5065479;28;20029;-81
2021/07/26 03:25:28;;;;;;;0.60;0.60;;;;;;;31.95;35.82;97708.84;5069609;28;20492;-81
2021/07/26 03:27:55;;;;;;;0.40;0.40;;;;;;;32.65;34.76;97703.75;5070587;28;20033;-82
2021/07/26 03:30:22;;;;;;;1.23;0.65;;;;;;;32.33;34.51;97697.16;5070641;28;20028;-82
2021/07/26 03:32:48;;;;;;;0.55;0.50;;;;;;;33.13;33.91;97686.88;5065094;28;20033;-82
2021/07/26 03:35:16;;;;;;;0.50;0.50;;;;;;;33.15;33.98;97681.44;5069772;28;20028;-81
2021/07/26 03:37:43;;;;;;;0.35;0.30;;;;;;;33.60;32.86;97679.72;5066281;28;20135;-82
2021/07/26 03:40:09;;;;;;;0.52;0.52;;;;;;;33.51;33.18;97665.66;5069990;28;20020;-82
2021/07/26 03:42:40;;;;;;;0.40;0.40;;;;;;;33.28;33.66;97679.72;5070391;28;20035;-82
2021/07/26 03:45:09;;;;;;;0.55;0.50;;;;;;;33.32;33.30;97673.81;5066026;28;20118;-82
2021/07/26 03:47:35;;;;;;;1.55;0.60;;;;;;;33.35;33.14;97679.25;5071118;28;20052;-82
2021/07/26 03:50:02;;;;;;;0.47;0.40;;;;;;;33.59;32.81;97686.69;5069592;28;20040;-81
2021/07/26 03:52:28;;;;;;;0.57;0.57;;;;;;;32.51;34.56;97687.59;5069785;28;20029;-82
2021/07/26 03:54:58;;;;;;;0.40;0.40;;;;;;;32.66;34.60;97682.56;5070763;28;20045;-81
2021/07/26 03:57:24;;;;;;;0.55;0.55;;;;;;;32.57;34.97;97691.25;5069408;28;20024;-82
2021/07/26 03:59:50;;;;;;;0.93;0.45;;;;;;;33.28;33.69;97693.22;5064674;28;20032;-82
2021/07/26 04:02:16;;;;;;;1.10;0.60;;;;;;;33.57;32.77;97690.06;5070326;28;20039;-82
2021/07/26 04:04:43;;;;;;;0.63;0.60;;;;;;;31.15;37.02;97690.38;5068698;28;20119;-82
2021/07/26 04:07:16;;;;;;;0.63;0.63;;;;;;;30.56;39.29;97694.47;5070011;28;20036;-82
2021/07/26 04:09:45;;;;;;;0.50;0.45;;;;;;;32.39;35.80;97703.72;5070312;28;20046;-81
2021/07/26 04:12:18;;;;;;;0.60;0.45;;;;;;;33.15;34.13;97698.53;5066774;28;20079;-81
2021/07/26 04:14:44;;;;;;;0.32;0.32;;;;;;;34.13;32.42;97691.13;5070679;28;20040;-82
2021/07/26 04:17:10;;;;;;;0.40;0.40;;;;;;;34.26;32.08;97685.72;5065785;28;20032;-82
2021/07/26 04:19:36;;;;;;;0.98;0.57;;;;;;;34.47;31.46;97678.53;5070276;28;20093;-82
2021/07/26 04:22:02;;;;;;;0.47;0.47;;;;;;;34.69;31.41;97695.72;5069833;28;20055;-82
2021/07/26 04:24:28;;;;;;;0.30;0.30;;;;;;;35.16;30.93;97696.03;5069956;28;20182;-82
2021/07/26 04:26:54;;;;;;;0.30;0.30;;;;;;;35.58;29.95;97707.19;5067798;28;20028;-81
2021/07/26 04:29:21;;;;;;;0.30;0.30;;;;;;;35.87;29.95;97700.09;5070105;28;20036;-81
2021/07/26 04:31:52;;;;;;;0.32;0.30;;;;;;;36.08;29.28;97704.97;5070559;28;20029;-82
2021/07/26 04:34:18;;;;;;;0.60;0.40;;;;;;;35.16;31.20;97707.44;5065684;28;20500;-82
2021/07/26 04:36:45;;;;;;;8.07;1.65;;;;;;;34.68;31.95;97708.41;5066621;28;20033;-82
2021/07/26 04:39:11;;;;;;;1.50;0.47;;;;;;;33.73;33.61;97711.38;5071964;28;20503;-82
2021/07/26 04:41:37;;;;;;;0.50;0.50;;;;;;;33.91;33.33;97725.22;5071411;28;20036;-82
2021/07/26 04:44:04;;;;;;;0.65;0.50;;;;;;;33.34;34.54;97731.81;5067344;28;20511;-83
2021/07/26 04:46:30;;;;;;;0.40;0.40;;;;;;;33.07;35.13;97738.03;5070243;28;20036;-82
2021/07/26 04:48:56;;;;;;;0.40;0.40;;;;;;;33.60;34.78;97737.44;5072634;28;20043;-82
2021/07/26 04:51:22;;;;;;;0.30;0.30;;;;;;;34.09;33.50;97739.06;5070496;28;20097;-82
2021/07/26 04:53:48;;;;;;;0.47;0.47;;;;;;;34.70;32.16;97739.28;5071918;28;20039;-82
2021/07/26 04:56:14;;;;;;;0.30;0.30;;;;;;;35.37;31.70;97740.16;5071997;28;20556;-81
2021/07/26 04:58:40;;;;;;;0.30;0.30;;;;;;;35.56;31.58;97740.41;5069924;28;20036;-83
2021/07/26 05:01:07;;;;;;;0.65;0.38;;;;;;;35.79;31.15;97748.44;5073709;28;20100;-82
2021/07/26 05:03:33;;;;;;;0.52;0.40;;;;;;;36.04;30.87;97743.72;5075520;28;20111;-82
2021/07/26 05:05:59;;;;;;;0.28;0.28;;;;;;;36.07;31.29;97745.53;5074166;28;20036;-82
2021/07/26 05:08:25;;;;;;;1.23;0.50;;;;;;;35.54;31.63;97749.53;5073427;28;20036;-82
2021/07/26 05:10:51;;;;;;;0.30;0.30;;;;;;;35.69;31.52;97750.00;5054383;28;20158;-82
2021/07/26 05:13:17;;;;;;;0.43;0.40;;;;;;;35.34;32.95;97753.38;5069815;28;20072;-82
2021/07/26 05:15:43;;;;;;;0.75;0.50;;;;;;;35.99;33.14;97765.28;5071301;28;20037;-82
2021/07/26 05:18:09;;;;;;;0.40;0.40;;;;;;;36.68;31.40;97777.53;5069621;28;20033;-83
2021/07/26 05:20:35;;;;;;;0.50;0.40;;;;;;;37.21;31.21;97769.66;5073000;28;20043;-84
2021/07/26 05:23:06;;;;;;;0.20;0.20;;;;;;;37.64;31.00;97764.13;5073599;28;20116;-84
2021/07/26 05:25:32;;;;;;;0.70;0.40;;;;;;;37.66;30.28;97770.09;5072859;28;20068;-83
2021/07/26 05:27:58;;;;;;;0.57;0.30;;;;;;;37.84;30.71;97778.03;5069372;28;20385;-83
2021/07/26 05:30:25;;;;;;;0.30;0.30;;;;;;;38.09;29.17;97782.44;5070277;28;20488;-83
2021/07/26 05:32:53;;;;;;;0.40;0.40;;;;;;;37.48;29.26;97785.13;5063165;28;20119;-83
2021/07/26 05:35:19;;;;;;;0.30;0.30;;;;;;;37.46;29.33;97784.88;5067339;28;20061;-82
2021/07/26 05:37:45;;;;;;;1.55;0.30;;;;;;;36.87;29.97;97785.50;5080428;28;20037;-83
2021/07/26 05:40:13;;;;;;;0.60;0.47;;;;;;;36.62;30.00;97785.34;5072206;28;20040;-83
2021/07/26 05:42:39;;;;;;;0.43;0.43;;;;;;;36.79;30.39;97795.94;5075740;28;20163;-83
2021/07/26 05:45:05;;;;;;;0.40;0.40;;;;;;;36.94;30.11;97788.59;5072748;28;20083;-83
2021/07/26 05:47:31;;;;;;;0.20;0.20;;;;;;;37.46;30.12;97797.09;5080714;28;20024;-84
2021/07/26 05:49:57;;;;;;;0.20;0.20;;;;;;;37.81;29.40;97793.41;5073963;28;20105;-84
2021/07/26 05:52:24;;;;;;;0.60;0.30;;;;;;;38.11;29.08;97799.13;5073723;28;20551;-84
2021/07/26 05:54:50;;;;;;;0.40;0.40;;;;;;;37.82;28.47;97798.63;5072452;28;20036;-83
2021/07/26 05:57:19;;;;;;;0.45;0.40;;;;;;;37.61;28.90;97802.44;5071733;28;20146;-84
2021/07/26 05:59:45;;;;;;;0.73;0.40;;;;;;;37.93;29.63;97803.47;5071101;28;20123;-84
2021/07/26 06:02:11;;;;;;;0.40;0.40;;;;;;;37.69;29.43;97809.94;5071121;28;20029;-83
2021/07/26 06:04:37;;;;;;;0.40;0.40;;;;;;;36.29;30.63;97811.22;5072910;28;20033;-83
2021/07/26 06:07:03;;;;;;;0.47;0.40;;;;;;;36.31;30.47;97820.06;5073972;28;20044;-83
2021/07/26 06:09:29;;;;;;;0.50;0.50;;;;;;;36.72;30.88;97818.09;5074033;28;20031;-84
2021/07/26 06:11:56;;;;;;;1.25;0.60;;;;;;;36.34;31.02;97829.66;5070128;28;20033;-83
2021/07/26 06:14:22;;;;;;;0.65;0.65;;;;;;;36.24;31.19;97831.25;5075545;28;20118;-83
2021/07/26 06:16:51;;;;;;;1.33;0.63;;;;;;;36.59;31.05;97819.97;5072911;28;20384;-83
2021/07/26 06:19:18;;;;;;;0.70;0.70;;;;;;;36.26;31.48;97829.44;5068299;28;20032;-83
2021/07/26 06:21:53;;;;;;;0.85;0.73;;;;;;;36.32;30.82;97824.44;5073150;28;20484;-83
2021/07/26 06:24:21;;;;;;;0.77;0.75;;;;;;;36.06;31.12;97826.84;5061981;28;20500;-82
2021/07/26 06:26:47;;;;;;;0.82;0.77;;;;;;;35.64;31.33;97835.72;5071758;28;20029;-82
2021/07/26 06:29:14;;;;;;;0.70;0.70;;;;;;;35.71;31.46;97840.91;5072061;28;20032;-83
2021/07/26 06:31:43;;;;;;;1.10;1.00;;;;;;;35.08;32.74;97832.00;5066261;28;20111;-82
2021/07/26 06:34:09;;;;;;;2.67;0.80;;;;;;;35.36;32.49;97832.81;5061954;28;20059;-83
2021/07/26 06:36:36;;;;;;;0.80;0.80;;;;;;;35.08;33.37;97832.00;5054642;28;20055;-83
2021/07/26 06:39:03;;;;;;;0.80;0.80;;;;;;;34.99;32.78;97835.03;5061870;28;20032;-83
2021/07/26 06:41:29;;;;;;;2.58;1.20;;;;;;;35.03;33.21;97838.47;5062089;28;20135;-83
2021/07/26 06:43:55;;;;;;;1.20;1.10;;;;;;;35.05;33.26;97844.44;5060333;28;20070;-83
2021/07/26 06:46:22;;;;;;;0.90;0.90;;;;;;;34.87;32.55;97853.44;5056733;28;20494;-83
2021/07/26 06:48:48;;;;;;;0.70;0.70;;;;;;;34.64;33.30;97853.34;5056059;28;20516;-82
2021/07/26 06:51:14;;;;;;;1.10;1.00;;;;;;;35.02;33.47;97851.97;5054706;28;20037;-83
2021/07/26 06:53:41;;;;;;;1.45;1.00;;;;;;;34.73;32.72;97858.84;5056533;28;20040;-83
2021/07/26 06:56:09;;;;;;;1.17;1.08;;;;;;;34.41;33.31;97851.66;5053827;28;20090;-82
2021/07/26 06:58:39;;;;;;;0.90;0.90;;;;;;;35.10;32.32;97858.72;5062185;28;20056;-83
2021/07/26 07:01:10;;;;;;;0.93;0.93;;;;;;;35.79;31.80;97861.94;5071711;28;20037;-83
2021/07/26 07:03:36;;;;;;;1.48;0.80;;;;;;;36.41;31.01;97858.47;5061509;28;20599;-83
2021/07/26 07:06:08;;;;;;;0.70;0.70;;;;;;;36.91;30.04;97869.00;5060364;28;20040;-84
2021/07/26 07:08:34;;;;;;;0.88;0.70;;;;;;;36.34;30.95;97867.59;5063012;28;20031;-83
2021/07/26 07:11:14;;;;;;;0.85;0.82;;;;;;;36.58;30.67;97861.31;5057392;28;20036;-83
2021/07/26 07:13:45;;;;;;;0.90;0.70;;;;;;;36.80;29.94;97864.09;5058402;28;20147;-83
2021/07/26 07:16:17;;;;;;;0.93;0.70;;;;;;;36.98;29.62;97869.25;5061370;28;20422;-83
2021/07/26 07:18:53;;;;;;;0.90;0.77;;;;;;;37.06;30.24;97864.50;5063384;28;20045;-83
2021/07/26 07:21:28;;;;;;;0.60;0.60;;;;;;;37.59;29.63;97871.75;5063920;28;20086;-84
2021/07/26 07:23:56;;;;;;;0.65;0.60;;;;;;;38.07;29.57;97879.69;5060450;28;20545;-84
2021/07/26 07:26:23;;;;;;;0.90;0.70;;;;;;;37.28;30.13;97875.84;5063376;28;20043;-84
2021/07/26 07:28:50;;;;;;;0.70;0.60;;;;;;;37.89;30.14;97880.41;5059447;28;20024;-84
2021/07/26 07:31:32;;;;;;;1.23;0.73;;;;;;;38.36;28.38;97878.94;5068843;28;20036;-85
2021/07/26 07:33:58;;;;;;;0.80;0.70;;;;;;;38.95;28.50;97874.34;5059971;28;20036;-83
2021/07/26 07:36:26;;;;;;;0.82;0.55;;;;;;;39.31;27.69;97875.69;5061335;28;20032;-85
2021/07/26 07:38:54;;;;;;;0.68;0.52;;;;;;;39.52;26.65;97875.91;5060715;28;20041;-84
2021/07/26 07:41:20;;;;;;;0.68;0.68;;;;;;;39.57;25.78;97872.16;5061188;28;20032;-84
2021/07/26 07:43:46;;;;;;;0.82;0.47;;;;;;;39.30;26.37;97869.16;5061511;28;20123;-84
2021/07/26 07:46:13;;;;;;;0.60;0.60;;;;;;;39.51;27.09;97871.50;5057936;28;20045;-83
2021/07/26 07:48:40;;;;;;;0.70;0.70;;;;;;;39.63;27.13;97875.78;5062524;28;20041;-83
2021/07/26 07:51:08;;;;;;;0.73;0.60;;;;;;;39.41;27.47;97876.06;5064042;28;20040;-83
2021/07/26 07:53:34;;;;;;;0.50;0.50;;;;;;;39.55;27.64;97877.69;5081353;28;20391;-84
2021/07/26 07:56:01;;;;;;;0.52;0.52;;;;;;;39.78;25.60;97888.31;5088671;28;20386;-87
2021/07/26 07:58:27;;;;;;;0.40;0.40;;;;;;;39.84;27.50;97885.38;5063910;28;20033;-84
2021/07/26 08:00:58;;;;;;;0.52;0.45;;;;;;;39.67;27.12;97887.72;5060732;28;20029;-83
2021/07/26 08:03:27;;;;;;;0.40;0.40;;;;;;;39.30;26.38;97883.53;5061549;28;20097;-85
2021/07/26 08:05:54;;;;;;;0.30;0.30;;;;;;;39.21;27.67;97894.66;5062893;28;20392;-84
2021/07/26 08:08:21;;;;;;;0.50;0.50;;;;;;;39.09;27.09;97893.22;5063500;28;20048;-83
2021/07/26 08:10:47;;;;;;;2.30;0.52;;;;;;;39.29;27.74;97884.88;5064645;28;20503;-84
2021/07/26 08:13:21;;;;;;;0.50;0.50;;;;;;;39.11;27.46;97893.47;5067646;28;20041;-85
2021/07/26 08:15:52;;;;;;;0.57;0.57;;;;;;;39.09;27.72;97901.84;5060570;28;20032;-85
2021/07/26 08:18:18;;;;;;;;;;;;;;;38.98;27.35;97897.00;5060687;28;20048;-85
2021/07/26 08:20:45;;;;;;;0.75;0.63;;;;;;;38.92;26.44;97904.16;5060392;28;20283;-83
2021/07/26 08:23:11;;;;;;;0.75;0.60;;;;;;;39.01;26.50;97909.50;5059149;28;20065;-86
2021/07/26 08:25:38;;;;;;;0.70;0.60;;;;;;;39.10;27.74;97909.91;5062379;28;20099;-84
2021/07/26 08:28:04;;;;;;;0.68;0.40;;;;;;;39.11;27.67;97902.84;5075316;28;20392;-85
2021/07/26 08:30:33;;;;;;;0.40;0.40;;;;;;;39.33;26.79;97896.81;5065378;28;20037;-85
2021/07/26 08:33:00;;;;;;;0.60;0.55;;;;;;;39.59;27.13;97899.06;5065596;28;20119;-86
2021/07/26 08:35:27;;;;;;;0.55;0.55;;;;;;;39.96;26.56;97898.22;5069890;28;20516;-86
2021/07/26 08:37:53;;;;;;;0.63;0.57;;;;;;;40.02;26.16;97901.81;5067801;28;20028;-86
2021/07/26 08:40:21;;;;;;;0.50;0.50;;;;;;;40.12;26.19;97893.53;5063106;28;20044;-87
2021/07/26 08:42:47;;;;;;;0.80;0.30;;;;;;;40.31;25.93;97897.88;5067037;28;20040;-88
2021/07/26 08:45:14;;;;;;;0.47;0.43;;;;;;;40.50;26.75;97895.72;5063694;28;20044;-87
2021/07/26 08:47:45;;;;;;;0.70;0.30;;;;;;;40.60;25.89;97898.94;5068930;28;20028;-87
2021/07/26 08:50:16;;;;;;;1.35;0.52;;;;;;;40.68;25.41;97905.59;5065632;28;20434;-87
2021/07/26 08:52:44;;;;;;;0.75;0.38;;;;;;;40.89;25.43;97900.72;5066950;28;20040;-87
2021/07/26 08:55:13;;;;;;;0.30;0.30;;;;;;;40.93;25.24;97906.16;5059694;28;20040;-87
2021/07/26 08:57:41;;;;;;;0.50;0.50;;;;;;;40.98;25.65;97902.41;5070541;28;20033;-87
2021/07/26 09:00:09;;;;;;;0.80;0.50;;;;;;;40.49;25.24;97914.34;5075174;28;20407;-87
2021/07/26 09:02:35;;;;;;;0.50;0.50;;;;;;;39.71;25.51;97903.34;5074263;28;20125;-87
2021/07/26 09:05:01;;;;;;;1.85;0.52;;;;;;;39.75;25.57;97909.53;5075378;28;20025;-87
2021/07/26 09:07:27;;;;;;;0.65;0.65;;;;;;;39.68;26.49;97907.28;5061566;28;20392;-87
2021/07/26 09:09:54;;;;;;;0.77;0.50;;;;;;;39.81;26.75;97909.47;5060501;28;20021;-87
2021/07/26 09:12:34;;;;;;;0.70;0.55;;;;;;;39.73;26.86;97912.19;5071288;28;20025;-87
2021/07/26 09:15:00;;;;;;;0.47;0.47;;;;;;;39.81;26.02;97907.38;5064028;28;20044;-87
2021/07/26 09:18:05;;;;;;;0.60;0.60;;;;;;;39.99;26.45;97915.16;5067111;28;20408;-87
2021/07/26 09:20:33;;;;;;;0.60;0.60;;;;;;;40.21;25.25;97901.75;5053109;28;20131;-87
2021/07/26 09:23:18;;;;;;;1.33;0.60;;;;;;;40.31;26.64;97905.75;5058092;28;21756;-88
2021/07/26 09:25:46;;;;;;;2.00;0.60;;;;;;;40.54;25.44;97899.03;5057185;28;20044;-87
2021/07/26 09:28:17;;;;;;;0.68;0.60;;;;;;;40.37;25.42;97901.44;5068741;28;20029;-88
2021/07/26 09:30:47;;;;;;;0.40;0.40;;;;;;;39.30;26.91;97900.03;5075577;28;20036;-87
2021/07/26 09:33:32;;;;;;;1.88;1.02;;;;;;;39.53;25.46;97903.34;5070390;28;20091;-88
2021/07/26 09:36:10;;;;;;;0.50;0.50;;;;;;;39.79;27.10;97900.59;5070314;28;20035;-87
2021/07/26 09:38:36;;;;;;;0.68;0.68;;;;;;;40.05;25.53;97905.69;5064810;28;20507;-88
2021/07/26 09:41:05;;;;;;;0.88;0.70;;;;;;;40.42;25.50;97906.34;5072578;28;20024;-88
2021/07/26 09:43:31;;;;;;;2.75;0.70;;;;;;;40.35;25.76;97900.44;5072611;28;20037;-88
2021/07/26 09:45:59;;;;;;;0.57;0.50;;;;;;;40.62;25.26;97902.81;5064660;28;20052;-88
2021/07/26 09:48:30;;;;;;;0.70;0.70;;;;;;;40.35;25.29;97897.56;5068054;28;20040;-87
2021/07/26 09:50:58;;;;;;;0.70;0.70;;;;;;;39.74;24.83;97908.00;5072543;28;20028;-87
2021/07/26 09:53:29;;;;;;;2.17;0.60;;;;;;;39.04;26.39;97906.34;5069763;28;20028;-87
2021/07/26 09:55:58;;;;;;;0.70;0.60;;;;;;;39.71;27.00;97911.19;5076429;28;20498;-87
2021/07/26 09:58:41;;;;;;;0.60;0.60;;;;;;;39.66;26.16;97914.91;5083445;28;20025;-88
2021/07/26 10:01:09;;;;;;;0.73;0.63;;;;;;;40.16;25.27;97914.13;5063891;28;20396;-87
2021/07/26 10:03:45;;;;;;;0.68;0.60;;;;;;;40.06;25.72;97918.75;5073480;28;20487;-87
2021/07/26 10:06:13;;;;;;;0.85;0.70;;;;;;;39.98;25.60;97924.34;5064623;28;20060;-88
2021/07/26 10:08:41;;;;;;;0.63;0.60;;;;;;;40.15;26.08;97927.72;5068749;28;20122;-87
2021/07/26 10:11:09;;;;;;;0.77;0.77;;;;;;;40.33;26.53;97918.25;5059991;28;20033;-87
2021/07/26 10:13:38;;;;;;;0.70;0.70;;;;;;;40.51;26.51;97916.66;5059109;28;20029;-88
2021/07/26 10:16:05;;;;;;;0.50;0.50;;;;;;;40.98;24.18;97917.59;5067884;28;20027;-87
2021/07/26 10:18:31;;;;;;;0.47;0.47;;;;;;;41.35;23.73;97910.78;5068599;28;20496;-87
2021/07/26 10:21:03;;;;;;;0.70;0.70;;;;;;;41.41;26.41;97916.41;5068829;28;20035;-87
2021/07/26 10:23:39;;;;;;;0.50;0.50;;;;;;;41.30;24.18;97909.56;5065105;28;20066;-87
2021/07/26 10:26:10;;;;;;;0.63;0.50;;;;;;;40.89;24.80;97917.25;5071931;28;20032;-87
2021/07/26 10:28:54;;;;;;;0.95;0.68;;;;;;;41.26;24.73;97902.56;5061785;28;20413;-88
2021/07/26 10:31:30;;;;;;;0.90;0.50;;;;;;;41.13;24.04;97909.13;5061161;28;20036;-87
2021/07/26 10:34:08;;;;;;;0.52;0.52;;;;;;;41.07;24.08;97908.47;5061101;28;20047;-87
2021/07/26 10:36:51;;;;;;;0.50;0.50;;;;;;;41.16;24.01;97898.59;5063252;28;20503;-87
2021/07/26 10:39:19;;;;;;;0.50;0.50;;;;;;;40.60;23.00;97911.25;5071943;28;20111;-86
2021/07/26 10:41:45;;;;;;;0.52;0.50;;;;;;;40.24;23.88;97900.66;5070849;28;20384;-87
2021/07/26 10:44:17;;;;;;;0.45;0.45;;;;;;;40.47;23.66;97913.34;5062154;28;20620;-87
2021/07/26 10:47:03;;;;;;;0.65;0.60;;;;;;;40.67;23.70;97912.69;5064193;28;20073;-87
2021/07/26 10:49:47;;;;;;;0.60;0.52;;;;;;;40.86;23.87;97909.72;5063418;28;20032;-86
2021/07/26 10:52:22;;;;;;;0.63;0.63;;;;;;;40.16;23.59;97899.75;5061556;28;20056;-86
2021/07/26 10:54:50;;;;;;;0.90;0.55;;;;;;;40.40;24.02;97911.84;5062399;28;20063;-85
2021/07/26 10:57:39;;;;;;;0.98;0.80;;;;;;;39.54;25.06;97894.16;5062557;28;20563;-84
2021/07/26 11:00:08;;;;;;;1.27;0.85;;;;;;;38.94;25.90;97904.38;5062470;28;20047;-86
2021/07/26 11:02:35;;;;;;;0.73;0.70;;;;;;;38.70;27.46;97913.75;5060283;28;20028;-85
2021/07/26 11:05:26;;;;;;;1.00;0.80;;;;;;;38.99;24.63;97906.41;5059182;28;20037;-86
2021/07/26 11:08:17;;;;;;;0.75;0.75;;;;;;;39.40;25.82;97903.28;5064287;28;20036;-85
2021/07/26 11:10:53;;;;;;;0.90;0.75;;;;;;;39.18;24.43;97905.16;5063137;28;20044;-85
2021/07/26 11:13:19;;;;;;;1.20;1.10;;;;;;;38.92;25.80;97902.06;5064513;28;20032;-84
2021/07/26 11:16:03;;;;;;;1.00;0.90;;;;;;;39.78;25.08;97896.94;5071350;28;20037;-84
2021/07/26 11:18:41;;;;;;;0.75;0.75;;;;;;;40.60;23.16;97896.84;5072853;28;20063;-85
2021/07/26 11:21:16;;;;;;;1.25;0.80;;;;;;;40.98;23.05;97903.19;5069933;28;20033;-87
2021/07/26 11:23:51;;;;;;;0.60;0.60;;;;;;;41.16;22.86;97892.84;5070492;28;20040;-86
2021/07/26 11:26:21;;;;;;;0.82;0.82;;;;;;;40.99;22.85;97901.81;5062121;28;20136;-87
2021/07/26 11:28:49;;;;;;;0.75;0.75;;;;;;;41.05;23.48;97896.75;5061355;28;20033;-86
2021/07/26 11:31:33;;;;;;;0.60;0.60;;;;;;;41.83;21.91;97886.31;5055223;28;20025;-85
2021/07/26 11:34:10;;;;;;;0.93;0.80;;;;;;;42.42;21.90;97891.09;5059880;28;20067;-85
2021/07/26 11:36:56;;;;;;;0.70;0.60;;;;;;;42.47;22.60;97895.19;5060384;28;20111;-84
2021/07/26 11:39:22;;;;;;;0.63;0.63;;;;;;;42.07;21.45;97893.84;5063245;28;20442;-85
2021/07/26 11:41:51;;;;;;;1.52;1.42;;;;;;;42.57;22.15;97884.69;5061472;28;20491;-84